createdAt,value
2023-10-19T00:01:29.516Z,80.54
2023-10-19T00:04:00.262Z,80.59
2023-10-19T00:06:27.041Z,80.53
2023-10-19T00:08:54.258Z,80.35
2023-10-19T00:11:25.522Z,80.04
2023-10-19T00:13:52.461Z,79.89
2023-10-19T00:16:23.598Z,79.92
2023-10-19T00:18:50.552Z,80.46
2023-10-19T00:21:27.174Z,80.68
2023-10-19T00:23:58.716Z,81.13
2023-10-19T00:26:26.544Z,80.78
2023-10-19T00:29:13.617Z,80.74
2023-10-19T00:31:42.142Z,80.62
2023-10-19T00:34:09.050Z,80.92
2023-10-19T00:36:36.017Z,81.11
2023-10-19T00:39:14.845Z,81.00
2023-10-19T00:41:42.117Z,80.85
2023-10-19T00:44:12.185Z,80.85
2023-10-19T00:46:42.365Z,80.81
2023-10-19T00:49:10.780Z,80.72
2023-10-19T00:51:38.534Z,80.64
2023-10-19T00:54:12.319Z,80.70
2023-10-19T00:56:42.621Z,80.50
2023-10-19T00:59:15.176Z,80.31
2023-10-19T01:02:05.979Z,80.42
2023-10-19T01:04:35.942Z,80.57
2023-10-19T01:07:05.631Z,80.45
2023-10-19T01:09:36.475Z,80.78
2023-10-19T01:12:24.870Z,81.13
2023-10-19T01:15:16.006Z,81.31
2023-10-19T01:17:54.474Z,80.99
2023-10-19T01:20:31.666Z,80.81
2023-10-19T01:23:12.385Z,80.71
2023-10-19T01:25:57.693Z,80.42
2023-10-19T01:28:41.785Z,80.45
2023-10-19T01:31:18.736Z,80.52
2023-10-19T01:33:45.639Z,80.63
2023-10-19T01:36:13.359Z,80.69
2023-10-19T01:38:40.354Z,80.72
2023-10-19T01:41:14.542Z,80.41
2023-10-19T01:43:43.629Z,80.47
2023-10-19T01:46:14.068Z,80.46
2023-10-19T01:48:44.728Z,80.41
2023-10-19T01:51:12.341Z,80.27
2023-10-19T01:53:44.311Z,80.15
2023-10-19T01:56:17.922Z,80.31
2023-10-19T01:58:48.119Z,80.40
2023-10-19T02:01:16.114Z,80.44
2023-10-19T02:03:43.444Z,80.39
2023-10-19T02:06:27.531Z,80.51
2023-10-19T02:09:24.453Z,80.60
2023-10-19T02:11:54.221Z,80.59
2023-10-19T02:14:21.156Z,80.68
2023-10-19T02:16:57.964Z,80.60
2023-10-19T02:19:26.156Z,80.47
2023-10-19T02:21:57.522Z,80.23
2023-10-19T02:24:24.308Z,80.48
2023-10-19T02:26:55.630Z,81.02
2023-10-19T02:29:27.258Z,81.10
2023-10-19T02:31:58.146Z,81.09
2023-10-19T02:34:25.613Z,81.28
2023-10-19T02:36:52.449Z,81.04
2023-10-19T02:39:19.244Z,81.01
2023-10-19T02:41:49.224Z,81.20
2023-10-19T02:44:20.047Z,81.44
2023-10-19T02:46:47.448Z,81.53
2023-10-19T02:49:15.198Z,81.63
2023-10-19T02:51:45.798Z,81.83
2023-10-19T02:54:31.378Z,82.03
2023-10-19T02:56:59.728Z,82.22
2023-10-19T02:59:29.504Z,82.43
2023-10-19T03:02:18.681Z,82.65
2023-10-19T03:04:47.453Z,82.57
2023-10-19T03:07:14.677Z,82.31
2023-10-19T03:09:49.930Z,81.88
2023-10-19T03:12:18.242Z,81.77
2023-10-19T03:14:47.656Z,81.47
2023-10-19T03:17:14.686Z,81.49
2023-10-19T03:19:41.564Z,81.55
2023-10-19T03:22:09.095Z,81.14
2023-10-19T03:24:45.212Z,80.91
2023-10-19T03:27:24.857Z,80.89
2023-10-19T03:30:15.257Z,80.28
2023-10-19T03:32:41.994Z,80.28
2023-10-19T03:35:09.207Z,80.26
2023-10-19T03:37:36.593Z,80.28
2023-10-19T03:40:08.901Z,80.48
2023-10-19T03:42:41.624Z,80.70
2023-10-19T03:45:14.441Z,80.88
2023-10-19T03:47:44.798Z,80.64
2023-10-19T03:50:21.919Z,80.71
2023-10-19T03:52:48.747Z,80.97
2023-10-19T03:55:24.835Z,80.88
2023-10-19T03:57:53.513Z,80.57
2023-10-19T04:00:20.667Z,80.47
2023-10-19T04:02:48.233Z,80.82
2023-10-19T04:05:21.916Z,81.04
2023-10-19T04:07:51.708Z,80.89
2023-10-19T04:10:36.808Z,80.91
2023-10-19T04:13:04.129Z,80.99
2023-10-19T04:15:34.831Z,80.99
2023-10-19T04:18:01.734Z,80.88
2023-10-19T04:20:37.221Z,81.19
2023-10-19T04:23:17.041Z,81.54
2023-10-19T04:25:47.434Z,81.34
2023-10-19T04:28:21.658Z,81.15
2023-10-19T04:30:49.820Z,81.18
2023-10-19T04:33:18.466Z,81.14
2023-10-19T04:35:45.399Z,80.99
2023-10-19T04:38:12.097Z,81.10
2023-10-19T04:40:38.927Z,81.50
2023-10-19T04:43:06.720Z,81.88
2023-10-19T04:45:33.643Z,82.03
2023-10-19T04:48:00.412Z,81.89
2023-10-19T04:50:27.178Z,81.82
2023-10-19T04:52:54.218Z,81.75
2023-10-19T04:55:21.045Z,81.75
2023-10-19T04:57:47.934Z,81.75
2023-10-19T05:00:17.889Z,81.47
2023-10-19T05:02:44.699Z,81.33
2023-10-19T05:05:11.806Z,81.45
2023-10-19T05:07:39.383Z,81.36
2023-10-19T05:10:06.936Z,81.51
2023-10-19T05:12:33.690Z,81.62
2023-10-19T05:15:00.443Z,81.79
2023-10-19T05:17:28.589Z,81.78
2023-10-19T05:19:55.698Z,81.42
2023-10-19T05:22:23.209Z,81.23
2023-10-19T05:24:50.053Z,81.11
2023-10-19T05:27:17.476Z,80.87
2023-10-19T05:29:44.680Z,80.44
2023-10-19T05:32:11.564Z,78.99
2023-10-19T05:34:38.561Z,77.69
2023-10-19T05:37:06.923Z,76.26
2023-10-19T05:39:35.103Z,74.68
2023-10-19T05:42:02.531Z,73.33
2023-10-19T05:44:32.626Z,71.83
2023-10-19T05:47:00.140Z,70.82
2023-10-19T05:49:27.735Z,71.15
2023-10-19T05:51:54.585Z,69.61
2023-10-19T05:54:24.582Z,68.52
2023-10-19T05:56:51.881Z,66.43
2023-10-19T05:59:18.634Z,65.65
2023-10-19T06:01:48.396Z,65.12
2023-10-19T06:04:16.717Z,63.27
2023-10-19T06:06:44.863Z,59.76
2023-10-19T06:09:11.548Z,57.03
2023-10-19T06:11:44.092Z,55.22
2023-10-19T06:14:11.138Z,55.25
2023-10-19T06:16:37.988Z,55.67
2023-10-19T06:19:05.480Z,55.26
2023-10-19T06:21:34.062Z,55.85
2023-10-19T06:24:00.705Z,54.63
2023-10-19T06:26:27.416Z,55.24
2023-10-19T06:28:59.972Z,54.83
2023-10-19T06:31:27.361Z,52.59
2023-10-19T06:33:54.276Z,51.86
2023-10-19T06:36:21.099Z,52.70
2023-10-19T06:38:47.921Z,52.07
2023-10-19T06:41:15.309Z,51.93
2023-10-19T06:43:42.273Z,51.18
2023-10-19T06:46:13.260Z,51.16
2023-10-19T06:48:40.998Z,50.27
2023-10-19T06:51:08.028Z,51.81
2023-10-19T06:53:35.068Z,50.57
2023-10-19T06:56:02.489Z,51.76
2023-10-19T06:58:29.451Z,50.38
2023-10-19T07:01:01.241Z,49.83
2023-10-19T07:03:29.611Z,48.29
2023-10-19T07:05:57.736Z,46.73
2023-10-19T07:08:24.345Z,46.19
2023-10-19T07:10:51.214Z,44.14
2023-10-19T07:13:18.155Z,46.15
2023-10-19T07:15:50.361Z,44.74
2023-10-19T07:18:17.394Z,44.61
2023-10-19T07:20:44.569Z,44.54
2023-10-19T07:23:11.479Z,45.50
2023-10-19T07:25:44.577Z,43.88
2023-10-19T07:28:13.823Z,44.52
2023-10-19T07:30:41.690Z,42.51
2023-10-19T07:33:10.973Z,43.84
2023-10-19T07:35:43.708Z,42.41
2023-10-19T07:38:11.186Z,42.53
2023-10-19T07:40:37.951Z,42.95
2023-10-19T07:43:09.640Z,42.79
2023-10-19T07:45:37.802Z,41.11
2023-10-19T07:48:08.130Z,40.63
2023-10-19T07:50:35.718Z,40.28
2023-10-19T07:53:02.735Z,41.22
2023-10-19T07:55:30.119Z,42.53
2023-10-19T07:57:58.407Z,42.62
2023-10-19T08:00:25.165Z,41.82
2023-10-19T08:02:52.845Z,41.61
2023-10-19T08:05:19.802Z,40.94
2023-10-19T08:07:49.975Z,40.89
2023-10-19T08:10:17.844Z,40.24
2023-10-19T08:12:45.927Z,40.86
2023-10-19T08:15:14.218Z,39.55
2023-10-19T08:17:41.785Z,40.76
2023-10-19T08:20:33.040Z,39.35
2023-10-19T08:23:02.895Z,38.55
2023-10-19T08:25:39.899Z,40.01
2023-10-19T08:28:17.093Z,40.63
2023-10-19T08:30:46.283Z,42.34
2023-10-19T08:33:15.319Z,41.06
2023-10-19T08:35:42.208Z,42.52
2023-10-19T08:38:12.895Z,40.97
2023-10-19T08:40:39.991Z,41.86
2023-10-19T08:43:08.947Z,41.58
2023-10-19T08:45:36.111Z,42.37
2023-10-19T08:48:03.667Z,40.73
2023-10-19T08:50:34.989Z,40.87
2023-10-19T08:53:07.588Z,42.73
2023-10-19T08:55:49.493Z,41.93
2023-10-19T08:58:20.777Z,42.15
2023-10-19T09:00:49.934Z,43.68
2023-10-19T09:03:18.899Z,43.33
2023-10-19T09:05:49.075Z,40.45
2023-10-19T09:08:20.879Z,44.71
2023-10-19T09:10:48.776Z,43.50
2023-10-19T09:13:25.843Z,41.18
2023-10-19T09:15:57.279Z,43.96
2023-10-19T09:18:25.896Z,44.35
2023-10-19T09:21:09.369Z,45.10
2023-10-19T09:23:37.726Z,45.59
2023-10-19T09:26:05.252Z,46.92
2023-10-19T09:28:35.221Z,43.82
2023-10-19T09:31:02.653Z,46.54
2023-10-19T09:33:30.443Z,47.32
2023-10-19T09:36:02.033Z,42.65
2023-10-19T09:38:28.833Z,44.06
2023-10-19T09:40:56.458Z,44.38
2023-10-19T09:43:37.003Z,44.90
2023-10-19T09:46:07.574Z,45.92
2023-10-19T09:48:36.894Z,46.26
2023-10-19T09:51:04.524Z,44.11
2023-10-19T09:53:31.272Z,44.34
2023-10-19T09:55:59.854Z,43.70
2023-10-19T09:58:30.919Z,46.98
2023-10-19T10:01:00.415Z,48.13
2023-10-19T10:03:46.020Z,45.29
2023-10-19T10:06:13.424Z,46.09
2023-10-19T10:08:40.283Z,46.51
2023-10-19T10:11:27.839Z,47.40
2023-10-19T10:13:56.544Z,47.93
2023-10-19T10:16:27.925Z,50.91
2023-10-19T10:19:02.144Z,47.55
2023-10-19T10:21:30.248Z,49.00
2023-10-19T10:23:57.627Z,48.36
2023-10-19T10:26:31.072Z,48.88
2023-10-19T10:29:20.960Z,48.19
2023-10-19T10:31:48.883Z,49.08
2023-10-19T10:34:34.816Z,49.42
2023-10-19T10:37:04.014Z,49.13
2023-10-19T10:39:35.293Z,49.98
2023-10-19T10:42:06.154Z,50.36
2023-10-19T10:44:44.005Z,51.28
2023-10-19T10:47:12.368Z,49.87
2023-10-19T10:49:51.263Z,49.60
2023-10-19T10:52:34.839Z,52.50
2023-10-19T10:55:14.935Z,48.38
2023-10-19T10:57:42.500Z,49.08
2023-10-19T11:00:19.866Z,49.58
2023-10-19T11:02:47.755Z,48.83
2023-10-19T11:05:15.499Z,49.18
2023-10-19T11:08:11.173Z,50.00
2023-10-19T11:10:38.179Z,49.60
2023-10-19T11:13:08.262Z,50.51
2023-10-19T11:15:38.784Z,51.61
2023-10-19T11:18:11.422Z,50.21
2023-10-19T11:20:38.183Z,52.19
2023-10-19T11:23:05.083Z,51.50
2023-10-19T11:25:33.214Z,52.83
2023-10-19T11:28:00.931Z,51.68
2023-10-19T11:30:34.777Z,52.31
2023-10-19T11:33:02.690Z,51.45
2023-10-19T11:35:31.814Z,51.56
2023-10-19T11:38:03.777Z,51.89
2023-10-19T11:40:30.584Z,51.61
2023-10-19T11:43:02.272Z,52.91
2023-10-19T11:45:30.247Z,54.02
2023-10-19T11:47:58.326Z,53.25
2023-10-19T11:50:25.806Z,53.05
2023-10-19T11:52:54.092Z,54.20
2023-10-19T11:55:22.724Z,55.77
2023-10-19T11:57:49.544Z,53.25
2023-10-19T12:00:23.191Z,54.52
2023-10-19T12:02:50.569Z,54.59
2023-10-19T12:05:17.455Z,54.58
2023-10-19T12:07:46.503Z,53.35
2023-10-19T12:10:16.222Z,53.78
2023-10-19T12:12:58.463Z,54.31
2023-10-19T12:15:28.646Z,55.81
2023-10-19T12:17:55.981Z,55.02
2023-10-19T12:20:25.795Z,55.61
2023-10-19T12:22:56.028Z,56.13
2023-10-19T12:25:39.568Z,56.47
2023-10-19T12:28:14.588Z,57.78
2023-10-19T12:30:42.518Z,58.35
2023-10-19T12:33:12.970Z,58.05
2023-10-19T12:35:53.087Z,59.48
2023-10-19T12:38:21.479Z,59.45
2023-10-19T12:40:48.805Z,56.85
2023-10-19T12:43:16.014Z,56.72
2023-10-19T12:45:43.062Z,57.00
2023-10-19T12:48:12.068Z,58.10
2023-10-19T12:50:39.517Z,57.28
2023-10-19T12:53:07.917Z,57.17
2023-10-19T12:55:35.865Z,56.59
2023-10-19T12:58:08.630Z,57.06
2023-10-19T13:00:37.462Z,57.74
2023-10-19T13:03:08.521Z,58.40
2023-10-19T13:05:38.703Z,57.64
2023-10-19T13:08:14.950Z,55.55
2023-10-19T13:10:45.740Z,56.84
2023-10-19T13:13:16.198Z,56.66
2023-10-19T13:15:47.241Z,56.29
2023-10-19T13:18:29.085Z,56.78
2023-10-19T13:20:56.501Z,56.54
2023-10-19T13:23:23.495Z,57.62
2023-10-19T13:25:53.838Z,57.38
2023-10-19T13:28:21.886Z,57.53
2023-10-19T13:30:52.588Z,58.81
2023-10-19T13:33:19.838Z,58.32
2023-10-19T13:35:46.869Z,57.19
2023-10-19T13:38:15.216Z,58.30
2023-10-19T13:40:42.570Z,59.01
2023-10-19T13:43:11.535Z,60.07
2023-10-19T13:45:38.459Z,59.84
2023-10-19T13:48:05.862Z,59.86
2023-10-19T13:50:33.023Z,59.82
2023-10-19T13:53:01.507Z,60.76
2023-10-19T13:55:28.381Z,60.71
2023-10-19T13:57:55.847Z,60.17
2023-10-19T14:00:46.177Z,61.57
2023-10-19T14:03:15.107Z,61.65
2023-10-19T14:05:49.237Z,62.17
2023-10-19T14:08:19.701Z,62.06
2023-10-19T14:10:46.655Z,62.06
2023-10-19T14:13:13.497Z,62.06
2023-10-19T14:15:40.616Z,62.21
2023-10-19T14:18:07.888Z,62.70
2023-10-19T14:20:35.771Z,62.68
2023-10-19T14:23:06.006Z,63.39
2023-10-19T14:25:32.998Z,63.63
2023-10-19T14:28:02.574Z,64.19
2023-10-19T14:30:29.657Z,64.67
2023-10-19T14:35:24.958Z,65.06
2023-10-19T14:37:53.068Z,64.90
2023-10-19T14:40:22.158Z,65.28
2023-10-19T14:42:49.048Z,65.56
2023-10-19T14:45:17.706Z,66.17
2023-10-19T14:47:49.496Z,66.53
2023-10-19T14:50:16.795Z,66.39
2023-10-19T14:52:43.715Z,66.43
2023-10-19T14:55:11.063Z,66.56
2023-10-19T14:57:41.026Z,66.41
2023-10-19T15:00:17.595Z,66.98
2023-10-19T15:02:47.744Z,67.21
2023-10-19T15:05:14.588Z,67.19
2023-10-19T15:07:45.853Z,67.53
2023-10-19T15:10:13.049Z,67.85
2023-10-19T15:12:42.631Z,67.91
2023-10-19T15:15:12.677Z,68.06
2023-10-19T15:17:39.988Z,68.56
2023-10-19T15:20:07.917Z,68.76
2023-10-19T15:22:34.735Z,69.11
2023-10-19T15:25:02.066Z,69.16
2023-10-19T15:27:29.611Z,69.50
2023-10-19T15:29:57.550Z,69.66
2023-10-19T15:32:25.838Z,69.96
2023-10-19T15:34:53.297Z,70.28
2023-10-19T15:37:21.372Z,70.35
2023-10-19T15:39:48.338Z,70.69
2023-10-19T15:42:15.091Z,70.94
2023-10-19T15:44:42.265Z,71.17
2023-10-19T15:47:13.481Z,71.25
2023-10-19T15:50:00.533Z,71.51
2023-10-19T15:52:32.824Z,71.65
2023-10-19T15:54:59.649Z,71.91
2023-10-19T15:57:26.803Z,72.23
2023-10-19T15:59:53.539Z,72.45
2023-10-19T16:02:20.710Z,72.61
2023-10-19T16:04:47.598Z,72.84
2023-10-19T16:07:15.042Z,72.97
2023-10-19T16:09:41.798Z,73.06
2023-10-19T16:12:09.257Z,73.23
2023-10-19T16:14:40.809Z,73.70
2023-10-19T16:17:07.993Z,73.77
2023-10-19T16:19:34.784Z,73.93
2023-10-19T16:22:01.722Z,74.19
2023-10-19T16:24:30.584Z,74.22
2023-10-19T16:26:57.761Z,74.18
2023-10-19T16:29:24.581Z,74.35
2023-10-19T16:31:51.372Z,74.69
2023-10-19T16:34:21.172Z,74.76
2023-10-19T16:36:48.021Z,74.62
2023-10-19T16:39:17.729Z,74.57
2023-10-19T16:41:47.736Z,74.47
2023-10-19T16:44:14.508Z,74.45
2023-10-19T16:46:42.498Z,74.20
2023-10-19T16:49:09.825Z,74.47
2023-10-19T16:51:41.176Z,74.45
2023-10-19T16:54:11.375Z,74.72
2023-10-19T16:56:41.036Z,75.43
2023-10-19T16:59:09.434Z,75.52
2023-10-19T17:01:36.276Z,75.58
2023-10-19T17:04:03.106Z,75.33
2023-10-19T17:06:29.888Z,74.96
2023-10-19T17:08:57.540Z,74.46
2023-10-19T17:11:24.869Z,73.90
2023-10-19T17:13:56.716Z,74.32
2023-10-19T17:16:23.621Z,74.71
2023-10-19T17:18:50.839Z,74.95
2023-10-19T17:21:17.586Z,75.06
2023-10-19T17:23:44.664Z,75.45
2023-10-19T17:26:11.528Z,75.57
2023-10-19T17:28:38.291Z,75.61
2023-10-19T17:31:06.909Z,75.62
2023-10-19T17:33:33.963Z,75.87
2023-10-19T17:36:00.863Z,75.99
2023-10-19T17:38:27.712Z,76.02
2023-10-19T17:40:55.033Z,75.99
2023-10-19T17:43:21.697Z,76.00
2023-10-19T17:45:48.491Z,76.13
2023-10-19T17:48:15.778Z,76.25
2023-10-19T17:50:43.555Z,76.52
2023-10-19T17:53:10.422Z,76.70
2023-10-19T17:55:38.149Z,76.54
2023-10-19T17:58:05.874Z,76.66
2023-10-19T18:00:33.036Z,76.93
2023-10-19T18:03:00.072Z,76.89
2023-10-19T18:05:27.283Z,76.85
2023-10-19T18:07:54.268Z,76.93
2023-10-19T18:10:21.596Z,76.87
2023-10-19T18:12:48.693Z,76.82
2023-10-19T18:15:21.487Z,76.87
2023-10-19T18:17:48.308Z,76.86
2023-10-19T18:20:17.380Z,76.99
2023-10-19T18:22:44.256Z,76.84
2023-10-19T18:25:14.516Z,76.71
2023-10-19T18:27:42.596Z,76.97
2023-10-19T18:30:11.321Z,77.22
2023-10-19T18:32:39.089Z,77.31
2023-10-19T18:35:07.622Z,77.62
2023-10-19T18:37:34.965Z,78.07
2023-10-19T18:40:02.166Z,78.12
2023-10-19T18:42:29.648Z,78.20
2023-10-19T18:44:56.601Z,78.35
2023-10-19T18:47:23.881Z,78.41
2023-10-19T18:49:53.775Z,78.47
2023-10-19T18:52:20.512Z,78.43
2023-10-19T18:54:47.315Z,78.22
2023-10-19T18:57:14.106Z,78.26
2023-10-19T18:59:40.996Z,78.07
2023-10-19T19:02:07.977Z,77.98
2023-10-19T19:04:35.121Z,78.18
2023-10-19T19:07:02.084Z,78.23
2023-10-19T19:09:29.168Z,78.08
2023-10-19T19:11:56.747Z,78.11
2023-10-19T19:14:23.588Z,78.29
2023-10-19T19:16:52.466Z,78.73
2023-10-19T19:19:19.370Z,78.78
2023-10-19T19:21:46.064Z,78.91
2023-10-19T19:24:12.814Z,78.99
2023-10-19T19:26:39.468Z,78.79
2023-10-19T19:29:07.259Z,78.88
2023-10-19T19:31:35.684Z,79.43
2023-10-19T19:34:03.964Z,79.61
2023-10-19T19:36:31.080Z,79.36
2023-10-19T19:38:58.267Z,79.22
2023-10-19T19:41:25.192Z,79.08
2023-10-19T19:43:53.469Z,79.09
2023-10-19T19:46:20.289Z,79.04
2023-10-19T19:48:46.975Z,79.15
2023-10-19T19:51:16.560Z,79.16
2023-10-19T19:53:45.013Z,79.18
2023-10-19T19:56:11.878Z,79.49
2023-10-19T19:58:38.910Z,79.84
2023-10-19T20:01:05.624Z,79.98
2023-10-19T20:03:33.466Z,80.10
2023-10-19T20:06:00.857Z,80.21
2023-10-19T20:08:28.301Z,80.20
2023-10-19T20:10:56.523Z,80.15
2023-10-19T20:13:24.396Z,80.24
2023-10-19T20:15:52.173Z,80.41
2023-10-19T20:18:20.457Z,80.62
2023-10-19T20:20:48.151Z,80.57
2023-10-19T20:23:15.658Z,80.62
2023-10-19T20:25:43.067Z,80.55
2023-10-19T20:28:10.414Z,80.69
2023-10-19T20:30:37.333Z,80.89
2023-10-19T20:33:06.012Z,80.83
2023-10-19T20:35:34.223Z,80.44
2023-10-19T20:38:01.249Z,80.30
2023-10-19T20:40:32.341Z,80.23
2023-10-19T20:42:59.998Z,80.27
2023-10-19T20:45:29.429Z,80.30
2023-10-19T20:47:59.109Z,80.19
2023-10-19T20:50:26.769Z,80.04
2023-10-19T20:52:56.635Z,80.12
2023-10-19T20:55:24.903Z,80.13
2023-10-19T20:57:52.098Z,80.12
2023-10-19T21:00:20.901Z,79.89
2023-10-19T21:02:48.061Z,79.90
2023-10-19T21:05:21.078Z,79.98
2023-10-19T21:07:48.239Z,80.07
2023-10-19T21:10:17.461Z,80.22
2023-10-19T21:12:47.539Z,80.41
2023-10-19T21:15:15.391Z,80.40
2023-10-19T21:17:54.902Z,80.37
2023-10-19T21:20:21.871Z,80.38
2023-10-19T21:22:50.238Z,80.35
2023-10-19T21:25:18.044Z,80.31
2023-10-19T21:27:45.707Z,80.32
2023-10-19T21:30:14.480Z,80.35
2023-10-19T21:32:43.027Z,80.29
2023-10-19T21:35:13.197Z,80.21
2023-10-19T21:37:39.924Z,80.27
2023-10-19T21:40:07.486Z,80.31
2023-10-19T21:42:34.282Z,80.41
2023-10-19T21:45:01.142Z,80.42
2023-10-19T21:47:27.896Z,80.24
2023-10-19T21:49:54.775Z,80.20
2023-10-19T21:52:27.571Z,80.09
2023-10-19T21:54:57.178Z,80.13
2023-10-19T21:57:23.933Z,79.95
2023-10-19T21:59:50.666Z,79.85
2023-10-19T22:02:17.449Z,79.67
2023-10-19T22:04:45.818Z,79.64
2023-10-19T22:07:15.314Z,79.64
2023-10-19T22:09:42.481Z,79.77
2023-10-19T22:12:11.325Z,79.72
2023-10-19T22:14:38.311Z,79.66
2023-10-19T22:17:06.639Z,79.59
2023-10-19T22:19:33.587Z,79.47
2023-10-19T22:22:00.358Z,79.69
2023-10-19T22:24:27.069Z,79.92
2023-10-19T22:26:53.834Z,79.95
2023-10-19T22:29:20.714Z,79.89
2023-10-19T22:31:47.995Z,79.99
2023-10-19T22:34:14.889Z,80.09
2023-10-19T22:36:44.444Z,80.26
2023-10-19T22:39:11.189Z,80.71
2023-10-19T22:41:38.562Z,81.01
2023-10-19T22:44:05.836Z,81.13
2023-10-19T22:46:32.792Z,81.13
2023-10-19T22:48:59.692Z,81.23
2023-10-19T22:51:26.762Z,81.13
2023-10-19T22:53:53.497Z,81.04
2023-10-19T22:56:20.285Z,81.00
2023-10-19T22:58:47.099Z,80.89
2023-10-19T23:01:14.315Z,80.66
2023-10-19T23:03:45.046Z,80.94
2023-10-19T23:06:11.839Z,81.87
2023-10-19T23:08:41.743Z,81.26
2023-10-19T23:11:14.585Z,80.47
2023-10-19T23:13:45.269Z,80.18
2023-10-19T23:16:15.498Z,80.14
2023-10-19T23:18:47.668Z,80.42
2023-10-19T23:21:16.056Z,80.52
2023-10-19T23:23:44.643Z,80.54
2023-10-19T23:26:11.711Z,80.43
2023-10-19T23:28:38.482Z,80.47
2023-10-19T23:31:08.824Z,80.33
2023-10-19T23:33:35.638Z,80.35
2023-10-19T23:36:03.807Z,80.26
2023-10-19T23:38:30.666Z,80.33
2023-10-19T23:40:57.659Z,80.54
2023-10-19T23:43:25.763Z,80.40
2023-10-19T23:45:52.636Z,80.34
2023-10-19T23:48:21.508Z,80.39
2023-10-19T23:50:49.049Z,80.52
2023-10-19T23:53:17.661Z,80.42
2023-10-19T23:55:45.187Z,80.37
2023-10-19T23:58:11.903Z,80.33
